sensor_id;sensor_type;location;lat;lon;timestamp;P1;durP1;ratioP1;P2;durP2;ratioP2
37411;SDS011;23278;52.110;6.050;2023-04-03T00:00:28;1.65;;;1.00;;
37411;SDS011;23278;52.110;6.050;2023-04-03T00:02:54;2.03;;;0.90;;
37411;SDS011;23278;52.110;6.050;2023-04-03T00:05:20;2.53;;;0.90;;
37411;SDS011;23278;52.110;6.050;2023-04-03T00:07:46;2.72;;;0.82;;
37411;SDS011;23278;52.110;6.050;2023-04-03T00:10:12;4.15;;;1.60;;
37411;SDS011;23278;52.110;6.050;2023-04-03T00:12:40;2.08;;;1.00;;
37411;SDS011;23278;52.110;6.050;2023-04-03T00:15:06;1.70;;;0.80;;
37411;SDS011;23278;52.110;6.050;2023-04-03T00:17:32;2.33;;;0.88;;
37411;SDS011;23278;52.110;6.050;2023-04-03T00:19:58;1.38;;;0.70;;
37411;SDS011;23278;52.110;6.050;2023-04-03T00:22:24;2.55;;;0.93;;
37411;SDS011;23278;52.110;6.050;2023-04-03T00:24:51;2.42;;;1.25;;
37411;SDS011;23278;52.110;6.050;2023-04-03T00:27:18;1.70;;;0.90;;
37411;SDS011;23278;52.110;6.050;2023-04-03T00:29:43;2.35;;;0.80;;
37411;SDS011;23278;52.110;6.050;2023-04-03T00:32:09;1.40;;;0.80;;
37411;SDS011;23278;52.110;6.050;2023-04-03T00:34:35;1.27;;;0.65;;
37411;SDS011;23278;52.110;6.050;2023-04-03T00:37:01;3.40;;;1.23;;
37411;SDS011;23278;52.110;6.050;2023-04-03T00:39:27;5.85;;;1.25;;
37411;SDS011;23278;52.110;6.050;2023-04-03T00:41:53;4.82;;;0.70;;
37411;SDS011;23278;52.110;6.050;2023-04-03T00:47:01;2.03;;;0.85;;
37411;SDS011;23278;52.110;6.050;2023-04-03T00:49:31;2.90;;;0.70;;
37411;SDS011;23278;52.110;6.050;2023-04-03T00:51:57;1.23;;;0.60;;
37411;SDS011;23278;52.110;6.050;2023-04-03T00:54:24;1.63;;;0.80;;
37411;SDS011;23278;52.110;6.050;2023-04-03T00:56:52;1.48;;;0.63;;
37411;SDS011;23278;52.110;6.050;2023-04-03T00:59:25;0.93;;;0.65;;
37411;SDS011;23278;52.110;6.050;2023-04-03T01:01:55;2.03;;;0.70;;
37411;SDS011;23278;52.110;6.050;2023-04-03T01:09:21;6.22;;;2.35;;
37411;SDS011;23278;52.110;6.050;2023-04-03T01:11:47;1.75;;;0.77;;
37411;SDS011;23278;52.110;6.050;2023-04-03T01:14:13;3.05;;;0.80;;
37411;SDS011;23278;52.110;6.050;2023-04-03T01:16:40;2.88;;;0.77;;
37411;SDS011;23278;52.110;6.050;2023-04-03T01:19:10;1.30;;;0.80;;
37411;SDS011;23278;52.110;6.050;2023-04-03T01:21:46;0.98;;;0.50;;
37411;SDS011;23278;52.110;6.050;2023-04-03T01:24:20;1.25;;;0.70;;
37411;SDS011;23278;52.110;6.050;2023-04-03T01:26:51;5.38;;;1.38;;
37411;SDS011;23278;52.110;6.050;2023-04-03T01:29:17;1.52;;;0.80;;
37411;SDS011;23278;52.110;6.050;2023-04-03T01:31:48;1.58;;;0.60;;
37411;SDS011;23278;52.110;6.050;2023-04-03T01:34:19;1.83;;;0.70;;
37411;SDS011;23278;52.110;6.050;2023-04-03T01:36:45;4.40;;;0.70;;
37411;SDS011;23278;52.110;6.050;2023-04-03T01:39:11;3.00;;;1.10;;
37411;SDS011;23278;52.110;6.050;2023-04-03T01:41:38;1.55;;;0.93;;
37411;SDS011;23278;52.110;6.050;2023-04-03T01:44:11;1.10;;;0.70;;
37411;SDS011;23278;52.110;6.050;2023-04-03T01:46:38;1.48;;;0.65;;
37411;SDS011;23278;52.110;6.050;2023-04-03T01:49:04;3.13;;;0.80;;
37411;SDS011;23278;52.110;6.050;2023-04-03T01:51:30;1.80;;;0.70;;
37411;SDS011;23278;52.110;6.050;2023-04-03T01:53:56;2.60;;;0.70;;
37411;SDS011;23278;52.110;6.050;2023-04-03T01:56:22;1.33;;;0.70;;
37411;SDS011;23278;52.110;6.050;2023-04-03T01:58:48;1.38;;;0.82;;
37411;SDS011;23278;52.110;6.050;2023-04-03T02:01:15;1.58;;;0.75;;
37411;SDS011;23278;52.110;6.050;2023-04-03T02:03:41;1.10;;;0.82;;
37411;SDS011;23278;52.110;6.050;2023-04-03T02:06:07;3.97;;;0.80;;
37411;SDS011;23278;52.110;6.050;2023-04-03T02:08:33;1.80;;;0.95;;
37411;SDS011;23278;52.110;6.050;2023-04-03T02:10:59;1.67;;;0.80;;
37411;SDS011;23278;52.110;6.050;2023-04-03T02:13:25;1.88;;;0.80;;
37411;SDS011;23278;52.110;6.050;2023-04-03T02:15:51;1.75;;;1.08;;
37411;SDS011;23278;52.110;6.050;2023-04-03T02:18:17;1.50;;;0.70;;
37411;SDS011;23278;52.110;6.050;2023-04-03T02:20:43;1.55;;;0.88;;
37411;SDS011;23278;52.110;6.050;2023-04-03T02:23:10;1.73;;;0.93;;
37411;SDS011;23278;52.110;6.050;2023-04-03T02:25:36;1.03;;;0.67;;
37411;SDS011;23278;52.110;6.050;2023-04-03T02:28:02;1.50;;;0.80;;
37411;SDS011;23278;52.110;6.050;2023-04-03T02:30:29;2.97;;;1.23;;
37411;SDS011;23278;52.110;6.050;2023-04-03T02:32:55;2.03;;;0.90;;
37411;SDS011;23278;52.110;6.050;2023-04-03T02:35:21;1.70;;;0.75;;
37411;SDS011;23278;52.110;6.050;2023-04-03T02:37:48;2.20;;;1.00;;
37411;SDS011;23278;52.110;6.050;2023-04-03T02:40:14;1.67;;;0.70;;
37411;SDS011;23278;52.110;6.050;2023-04-03T02:42:40;1.67;;;0.60;;
37411;SDS011;23278;52.110;6.050;2023-04-03T02:45:06;4.93;;;0.83;;
37411;SDS011;23278;52.110;6.050;2023-04-03T02:47:32;3.03;;;1.00;;
37411;SDS011;23278;52.110;6.050;2023-04-03T02:49:58;1.87;;;0.57;;
37411;SDS011;23278;52.110;6.050;2023-04-03T02:52:24;1.20;;;0.60;;
37411;SDS011;23278;52.110;6.050;2023-04-03T02:54:53;2.63;;;1.63;;
37411;SDS011;23278;52.110;6.050;2023-04-03T02:57:19;1.40;;;0.60;;
37411;SDS011;23278;52.110;6.050;2023-04-03T02:59:45;1.43;;;0.70;;
37411;SDS011;23278;52.110;6.050;2023-04-03T03:02:11;1.37;;;0.83;;
37411;SDS011;23278;52.110;6.050;2023-04-03T03:04:37;1.90;;;0.70;;
37411;SDS011;23278;52.110;6.050;2023-04-03T03:07:03;2.70;;;0.70;;
37411;SDS011;23278;52.110;6.050;2023-04-03T03:09:30;1.80;;;0.60;;
37411;SDS011;23278;52.110;6.050;2023-04-03T03:11:57;1.27;;;0.80;;
37411;SDS011;23278;52.110;6.050;2023-04-03T03:14:23;2.30;;;1.00;;
37411;SDS011;23278;52.110;6.050;2023-04-03T03:16:49;1.90;;;0.70;;
37411;SDS011;23278;52.110;6.050;2023-04-03T03:19:15;1.73;;;0.70;;
37411;SDS011;23278;52.110;6.050;2023-04-03T03:21:41;1.30;;;0.70;;
37411;SDS011;23278;52.110;6.050;2023-04-03T03:24:07;2.33;;;1.00;;
37411;SDS011;23278;52.110;6.050;2023-04-03T03:26:33;3.53;;;1.10;;
37411;SDS011;23278;52.110;6.050;2023-04-03T03:29:01;3.27;;;1.03;;
37411;SDS011;23278;52.110;6.050;2023-04-03T03:31:27;1.83;;;1.07;;
37411;SDS011;23278;52.110;6.050;2023-04-03T03:33:53;1.50;;;0.90;;
37411;SDS011;23278;52.110;6.050;2023-04-03T03:36:21;2.07;;;0.80;;
37411;SDS011;23278;52.110;6.050;2023-04-03T03:38:47;2.77;;;0.97;;
37411;SDS011;23278;52.110;6.050;2023-04-03T03:41:13;3.47;;;0.93;;
37411;SDS011;23278;52.110;6.050;2023-04-03T03:43:40;2.10;;;0.90;;
37411;SDS011;23278;52.110;6.050;2023-04-03T03:46:07;2.53;;;0.97;;
37411;SDS011;23278;52.110;6.050;2023-04-03T03:48:33;1.50;;;0.70;;
37411;SDS011;23278;52.110;6.050;2023-04-03T03:50:59;3.20;;;0.90;;
37411;SDS011;23278;52.110;6.050;2023-04-03T03:53:29;1.70;;;0.80;;
37411;SDS011;23278;52.110;6.050;2023-04-03T03:55:59;2.40;;;1.13;;
37411;SDS011;23278;52.110;6.050;2023-04-03T03:58:28;1.13;;;0.70;;
37411;SDS011;23278;52.110;6.050;2023-04-03T04:00:54;3.67;;;0.80;;
37411;SDS011;23278;52.110;6.050;2023-04-03T04:03:20;2.07;;;0.73;;
37411;SDS011;23278;52.110;6.050;2023-04-03T04:05:47;2.13;;;0.70;;
37411;SDS011;23278;52.110;6.050;2023-04-03T04:08:14;1.63;;;0.80;;
37411;SDS011;23278;52.110;6.050;2023-04-03T04:10:41;1.97;;;1.00;;
37411;SDS011;23278;52.110;6.050;2023-04-03T04:13:08;2.43;;;0.73;;
37411;SDS011;23278;52.110;6.050;2023-04-03T04:15:34;1.53;;;1.00;;
37411;SDS011;23278;52.110;6.050;2023-04-03T04:17:59;1.97;;;0.87;;
37411;SDS011;23278;52.110;6.050;2023-04-03T04:20:26;3.07;;;1.00;;
37411;SDS011;23278;52.110;6.050;2023-04-03T04:22:52;1.93;;;0.70;;
37411;SDS011;23278;52.110;6.050;2023-04-03T04:25:20;3.00;;;1.00;;
37411;SDS011;23278;52.110;6.050;2023-04-03T04:27:46;1.90;;;1.00;;
37411;SDS011;23278;52.110;6.050;2023-04-03T04:30:14;1.97;;;0.70;;
37411;SDS011;23278;52.110;6.050;2023-04-03T04:32:41;4.00;;;0.73;;
37411;SDS011;23278;52.110;6.050;2023-04-03T04:35:07;1.60;;;0.80;;
37411;SDS011;23278;52.110;6.050;2023-04-03T04:37:38;3.63;;;1.07;;
37411;SDS011;23278;52.110;6.050;2023-04-03T04:40:04;1.27;;;0.80;;
37411;SDS011;23278;52.110;6.050;2023-04-03T04:42:31;2.13;;;1.10;;
37411;SDS011;23278;52.110;6.050;2023-04-03T04:44:57;2.00;;;0.70;;
37411;SDS011;23278;52.110;6.050;2023-04-03T04:47:23;3.57;;;1.10;;
37411;SDS011;23278;52.110;6.050;2023-04-03T04:49:50;2.70;;;1.23;;
37411;SDS011;23278;52.110;6.050;2023-04-03T04:52:16;2.17;;;1.10;;
37411;SDS011;23278;52.110;6.050;2023-04-03T04:54:42;5.70;;;1.10;;
37411;SDS011;23278;52.110;6.050;2023-04-03T04:57:09;2.30;;;0.90;;
37411;SDS011;23278;52.110;6.050;2023-04-03T04:59:36;1.47;;;0.93;;
37411;SDS011;23278;52.110;6.050;2023-04-03T05:02:03;2.40;;;0.90;;
37411;SDS011;23278;52.110;6.050;2023-04-03T05:04:30;1.87;;;0.70;;
37411;SDS011;23278;52.110;6.050;2023-04-03T05:07:02;3.23;;;1.40;;
37411;SDS011;23278;52.110;6.050;2023-04-03T05:09:30;2.97;;;1.50;;
37411;SDS011;23278;52.110;6.050;2023-04-03T05:11:56;3.50;;;1.23;;
37411;SDS011;23278;52.110;6.050;2023-04-03T05:14:25;1.87;;;0.70;;
37411;SDS011;23278;52.110;6.050;2023-04-03T05:16:52;1.90;;;0.67;;
37411;SDS011;23278;52.110;6.050;2023-04-03T05:19:20;3.43;;;0.97;;
37411;SDS011;23278;52.110;6.050;2023-04-03T05:21:47;2.93;;;1.00;;
37411;SDS011;23278;52.110;6.050;2023-04-03T05:24:15;2.83;;;1.00;;
37411;SDS011;23278;52.110;6.050;2023-04-03T05:26:42;2.40;;;0.83;;
37411;SDS011;23278;52.110;6.050;2023-04-03T05:29:09;5.77;;;3.53;;
37411;SDS011;23278;52.110;6.050;2023-04-03T05:31:36;5.73;;;1.37;;
37411;SDS011;23278;52.110;6.050;2023-04-03T05:34:03;5.67;;;1.10;;
37411;SDS011;23278;52.110;6.050;2023-04-03T05:36:32;2.60;;;0.90;;
37411;SDS011;23278;52.110;6.050;2023-04-03T05:39:07;6.73;;;1.37;;
37411;SDS011;23278;52.110;6.050;2023-04-03T05:41:36;7.28;;;2.30;;
37411;SDS011;23278;52.110;6.050;2023-04-03T05:44:03;4.30;;;1.07;;
37411;SDS011;23278;52.110;6.050;2023-04-03T05:46:29;3.10;;;1.50;;
37411;SDS011;23278;52.110;6.050;2023-04-03T05:48:56;6.87;;;1.97;;
37411;SDS011;23278;52.110;6.050;2023-04-03T05:51:28;6.13;;;2.60;;
37411;SDS011;23278;52.110;6.050;2023-04-03T05:54:13;6.47;;;2.47;;
37411;SDS011;23278;52.110;6.050;2023-04-03T05:56:44;6.93;;;3.17;;
37411;SDS011;23278;52.110;6.050;2023-04-03T05:59:10;3.37;;;1.67;;
37411;SDS011;23278;52.110;6.050;2023-04-03T06:01:37;3.53;;;1.63;;
37411;SDS011;23278;52.110;6.050;2023-04-03T06:04:03;6.33;;;1.43;;
37411;SDS011;23278;52.110;6.050;2023-04-03T06:09:17;4.77;;;1.90;;
37411;SDS011;23278;52.110;6.050;2023-04-03T06:11:44;6.53;;;2.70;;
37411;SDS011;23278;52.110;6.050;2023-04-03T06:14:11;6.70;;;2.93;;
37411;SDS011;23278;52.110;6.050;2023-04-03T06:16:37;4.03;;;3.40;;
37411;SDS011;23278;52.110;6.050;2023-04-03T06:19:09;3.10;;;2.57;;
37411;SDS011;23278;52.110;6.050;2023-04-03T06:21:39;4.37;;;2.97;;
37411;SDS011;23278;52.110;6.050;2023-04-03T06:24:12;3.63;;;2.10;;
37411;SDS011;23278;52.110;6.050;2023-04-03T06:26:41;5.00;;;2.20;;
37411;SDS011;23278;52.110;6.050;2023-04-03T06:29:07;3.97;;;1.77;;
37411;SDS011;23278;52.110;6.050;2023-04-03T06:31:34;8.63;;;2.40;;
37411;SDS011;23278;52.110;6.050;2023-04-03T06:34:01;4.63;;;1.90;;
37411;SDS011;23278;52.110;6.050;2023-04-03T06:36:28;4.10;;;1.33;;
37411;SDS011;23278;52.110;6.050;2023-04-03T06:38:55;4.33;;;1.27;;
37411;SDS011;23278;52.110;6.050;2023-04-03T06:41:21;4.03;;;2.30;;
37411;SDS011;23278;52.110;6.050;2023-04-03T06:43:47;4.23;;;1.47;;
37411;SDS011;23278;52.110;6.050;2023-04-03T06:46:20;6.43;;;1.93;;
37411;SDS011;23278;52.110;6.050;2023-04-03T06:48:47;6.63;;;1.63;;
37411;SDS011;23278;52.110;6.050;2023-04-03T06:51:18;3.87;;;1.97;;
37411;SDS011;23278;52.110;6.050;2023-04-03T06:53:52;3.83;;;1.13;;
37411;SDS011;23278;52.110;6.050;2023-04-03T06:56:20;12.73;;;2.10;;
37411;SDS011;23278;52.110;6.050;2023-04-03T06:58:47;4.77;;;1.27;;
37411;SDS011;23278;52.110;6.050;2023-04-03T07:01:14;2.70;;;1.23;;
37411;SDS011;23278;52.110;6.050;2023-04-03T07:03:41;3.47;;;0.90;;
37411;SDS011;23278;52.110;6.050;2023-04-03T07:06:09;3.43;;;1.03;;
37411;SDS011;23278;52.110;6.050;2023-04-03T07:08:38;4.68;;;1.65;;
37411;SDS011;23278;52.110;6.050;2023-04-03T07:11:04;4.57;;;1.57;;
37411;SDS011;23278;52.110;6.050;2023-04-03T07:13:31;2.40;;;1.13;;
37411;SDS011;23278;52.110;6.050;2023-04-03T07:15:58;7.15;;;1.00;;
37411;SDS011;23278;52.110;6.050;2023-04-03T07:18:24;3.15;;;1.40;;
37411;SDS011;23278;52.110;6.050;2023-04-03T07:20:51;2.88;;;1.55;;
37411;SDS011;23278;52.110;6.050;2023-04-03T07:23:17;4.55;;;1.30;;
37411;SDS011;23278;52.110;6.050;2023-04-03T07:25:44;4.28;;;1.17;;
37411;SDS011;23278;52.110;6.050;2023-04-03T07:28:11;3.38;;;1.48;;
37411;SDS011;23278;52.110;6.050;2023-04-03T07:30:42;4.00;;;1.30;;
37411;SDS011;23278;52.110;6.050;2023-04-03T07:33:10;4.95;;;1.15;;
37411;SDS011;23278;52.110;6.050;2023-04-03T07:35:39;3.65;;;0.90;;
37411;SDS011;23278;52.110;6.050;2023-04-03T07:38:05;2.80;;;0.70;;
37411;SDS011;23278;52.110;6.050;2023-04-03T07:40:31;4.93;;;1.20;;
37411;SDS011;23278;52.110;6.050;2023-04-03T07:42:58;8.43;;;1.30;;
37411;SDS011;23278;52.110;6.050;2023-04-03T07:45:25;16.67;;;1.97;;
37411;SDS011;23278;52.110;6.050;2023-04-03T07:47:51;6.35;;;1.42;;
37411;SDS011;23278;52.110;6.050;2023-04-03T07:50:18;3.55;;;1.10;;
37411;SDS011;23278;52.110;6.050;2023-04-03T07:52:44;7.35;;;1.30;;
37411;SDS011;23278;52.110;6.050;2023-04-03T07:55:11;2.00;;;0.82;;
37411;SDS011;23278;52.110;6.050;2023-04-03T07:57:37;8.32;;;1.27;;
37411;SDS011;23278;52.110;6.050;2023-04-03T08:00:04;2.90;;;1.73;;
37411;SDS011;23278;52.110;6.050;2023-04-03T08:02:37;3.05;;;1.30;;
37411;SDS011;23278;52.110;6.050;2023-04-03T08:05:03;3.17;;;1.77;;
37411;SDS011;23278;52.110;6.050;2023-04-03T08:07:29;2.10;;;0.80;;
37411;SDS011;23278;52.110;6.050;2023-04-03T08:09:55;2.67;;;0.77;;
37411;SDS011;23278;52.110;6.050;2023-04-03T08:12:22;5.25;;;0.80;;
37411;SDS011;23278;52.110;6.050;2023-04-03T08:14:48;2.95;;;0.98;;
37411;SDS011;23278;52.110;6.050;2023-04-03T08:17:14;2.25;;;0.70;;
37411;SDS011;23278;52.110;6.050;2023-04-03T08:19:40;3.53;;;1.00;;
37411;SDS011;23278;52.110;6.050;2023-04-03T08:22:06;1.08;;;0.60;;
37411;SDS011;23278;52.110;6.050;2023-04-03T08:24:32;6.00;;;1.02;;
37411;SDS011;23278;52.110;6.050;2023-04-03T08:26:59;1.67;;;0.70;;
37411;SDS011;23278;52.110;6.050;2023-04-03T08:29:36;3.30;;;0.80;;
37411;SDS011;23278;52.110;6.050;2023-04-03T08:36:42;2.42;;;0.77;;
37411;SDS011;23278;52.110;6.050;2023-04-03T08:39:09;2.17;;;0.60;;
37411;SDS011;23278;52.110;6.050;2023-04-03T08:41:42;2.50;;;0.70;;
37411;SDS011;23278;52.110;6.050;2023-04-03T08:47:11;2.72;;;0.60;;
37411;SDS011;23278;52.110;6.050;2023-04-03T08:49:42;1.90;;;0.80;;
37411;SDS011;23278;52.110;6.050;2023-04-03T08:52:38;2.72;;;0.52;;
37411;SDS011;23278;52.110;6.050;2023-04-03T08:55:31;1.25;;;0.63;;
37411;SDS011;23278;52.110;6.050;2023-04-03T08:58:01;1.85;;;0.70;;
37411;SDS011;23278;52.110;6.050;2023-04-03T09:00:37;2.15;;;0.50;;
37411;SDS011;23278;52.110;6.050;2023-04-03T09:03:13;3.40;;;0.60;;
37411;SDS011;23278;52.110;6.050;2023-04-03T09:08:38;3.90;;;0.52;;
37411;SDS011;23278;52.110;6.050;2023-04-03T09:11:25;1.00;;;0.50;;
37411;SDS011;23278;52.110;6.050;2023-04-03T09:22:20;0.40;;;0.40;;
37411;SDS011;23278;52.110;6.050;2023-04-03T09:24:46;0.73;;;0.45;;
37411;SDS011;23278;52.110;6.050;2023-04-03T09:27:15;1.10;;;0.45;;
37411;SDS011;23278;52.110;6.050;2023-04-03T09:29:42;0.63;;;0.40;;
37411;SDS011;23278;52.110;6.050;2023-04-03T09:32:18;2.00;;;0.90;;
37411;SDS011;23278;52.110;6.050;2023-04-03T09:34:44;0.60;;;0.40;;
37411;SDS011;23278;52.110;6.050;2023-04-03T09:37:12;1.20;;;0.57;;
37411;SDS011;23278;52.110;6.050;2023-04-03T09:40:30;5.72;;;0.70;;
37411;SDS011;23278;52.110;6.050;2023-04-03T09:48:18;2.53;;;0.50;;
37411;SDS011;23278;52.110;6.050;2023-04-03T09:53:30;0.52;;;0.50;;
37411;SDS011;23278;52.110;6.050;2023-04-03T09:58:46;1.08;;;0.60;;
37411;SDS011;23278;52.110;6.050;2023-04-03T10:01:27;1.27;;;0.57;;
37411;SDS011;23278;52.110;6.050;2023-04-03T10:06:41;0.93;;;0.60;;
37411;SDS011;23278;52.110;6.050;2023-04-03T10:09:17;1.85;;;0.50;;
37411;SDS011;23278;52.110;6.050;2023-04-03T10:12:00;1.67;;;0.55;;
37411;SDS011;23278;52.110;6.050;2023-04-03T10:14:26;0.47;;;0.43;;
37411;SDS011;23278;52.110;6.050;2023-04-03T10:25:43;1.48;;;0.50;;
37411;SDS011;23278;52.110;6.050;2023-04-03T10:33:54;1.48;;;0.60;;
37411;SDS011;23278;52.110;6.050;2023-04-03T10:36:28;1.50;;;0.60;;
37411;SDS011;23278;52.110;6.050;2023-04-03T10:44:55;1.20;;;0.50;;
37411;SDS011;23278;52.110;6.050;2023-04-03T10:50:31;0.85;;;0.35;;
37411;SDS011;23278;52.110;6.050;2023-04-03T10:53:24;2.22;;;0.50;;
37411;SDS011;23278;52.110;6.050;2023-04-03T10:59:09;1.55;;;0.50;;
37411;SDS011;23278;52.110;6.050;2023-04-03T11:01:55;2.83;;;0.50;;
37411;SDS011;23278;52.110;6.050;2023-04-03T11:04:31;1.00;;;0.45;;
37411;SDS011;23278;52.110;6.050;2023-04-03T11:07:18;1.10;;;0.50;;
37411;SDS011;23278;52.110;6.050;2023-04-03T11:09:57;1.40;;;0.60;;
37411;SDS011;23278;52.110;6.050;2023-04-03T11:12:47;1.20;;;0.50;;
37411;SDS011;23278;52.110;6.050;2023-04-03T11:15:18;1.67;;;0.50;;
37411;SDS011;23278;52.110;6.050;2023-04-03T11:17:55;0.95;;;0.40;;
37411;SDS011;23278;52.110;6.050;2023-04-03T11:20:30;1.60;;;0.40;;
37411;SDS011;23278;52.110;6.050;2023-04-03T11:25:37;2.35;;;0.50;;
37411;SDS011;23278;52.110;6.050;2023-04-03T11:28:11;0.95;;;0.30;;
37411;SDS011;23278;52.110;6.050;2023-04-03T11:33:40;2.00;;;1.25;;
37411;SDS011;23278;52.110;6.050;2023-04-03T11:36:27;0.70;;;0.40;;
37411;SDS011;23278;52.110;6.050;2023-04-03T11:41:48;4.15;;;1.30;;
37411;SDS011;23278;52.110;6.050;2023-04-03T11:47:02;0.90;;;0.43;;
37411;SDS011;23278;52.110;6.050;2023-04-03T12:05:56;1.30;;;0.50;;
37411;SDS011;23278;52.110;6.050;2023-04-03T12:16:06;4.25;;;0.93;;
37411;SDS011;23278;52.110;6.050;2023-04-03T12:26:40;1.48;;;0.43;;
37411;SDS011;23278;52.110;6.050;2023-04-03T12:29:19;1.50;;;0.43;;
37411;SDS011;23278;52.110;6.050;2023-04-03T12:34:50;1.95;;;0.57;;
37411;SDS011;23278;52.110;6.050;2023-04-03T12:55:54;2.80;;;0.75;;
37411;SDS011;23278;52.110;6.050;2023-04-03T12:58:27;2.33;;;0.65;;
37411;SDS011;23278;52.110;6.050;2023-04-03T13:03:29;1.58;;;0.50;;
37411;SDS011;23278;52.110;6.050;2023-04-03T13:05:57;1.75;;;0.77;;
37411;SDS011;23278;52.110;6.050;2023-04-03T13:08:27;0.77;;;0.38;;
37411;SDS011;23278;52.110;6.050;2023-04-03T13:11:06;1.58;;;0.40;;
37411;SDS011;23278;52.110;6.050;2023-04-03T13:13:36;0.88;;;0.40;;
37411;SDS011;23278;52.110;6.050;2023-04-03T13:16:07;0.90;;;0.50;;
37411;SDS011;23278;52.110;6.050;2023-04-03T13:18:36;2.42;;;0.47;;
37411;SDS011;23278;52.110;6.050;2023-04-03T13:23:30;1.55;;;0.38;;
37411;SDS011;23278;52.110;6.050;2023-04-03T13:25:59;1.00;;;0.50;;
37411;SDS011;23278;52.110;6.050;2023-04-03T13:28:29;2.15;;;0.77;;
37411;SDS011;23278;52.110;6.050;2023-04-03T13:33:28;2.92;;;0.90;;
37411;SDS011;23278;52.110;6.050;2023-04-03T13:35:58;1.27;;;0.50;;
37411;SDS011;23278;52.110;6.050;2023-04-03T13:38:31;2.40;;;0.60;;
37411;SDS011;23278;52.110;6.050;2023-04-03T13:41:20;3.15;;;0.52;;
37411;SDS011;23278;52.110;6.050;2023-04-03T13:43:48;3.90;;;0.57;;
37411;SDS011;23278;52.110;6.050;2023-04-03T13:48:45;1.38;;;0.50;;
37411;SDS011;23278;52.110;6.050;2023-04-03T13:56:19;2.88;;;0.68;;
37411;SDS011;23278;52.110;6.050;2023-04-03T13:58:59;2.05;;;0.63;;
37411;SDS011;23278;52.110;6.050;2023-04-03T14:01:46;1.70;;;0.60;;
37411;SDS011;23278;52.110;6.050;2023-04-03T14:04:17;1.58;;;0.60;;
37411;SDS011;23278;52.110;6.050;2023-04-03T14:06:47;2.40;;;0.52;;
37411;SDS011;23278;52.110;6.050;2023-04-03T14:09:14;1.80;;;0.50;;
37411;SDS011;23278;52.110;6.050;2023-04-03T14:11:42;2.72;;;0.63;;
37411;SDS011;23278;52.110;6.050;2023-04-03T14:14:14;1.98;;;0.50;;
37411;SDS011;23278;52.110;6.050;2023-04-03T14:16:44;1.77;;;0.57;;
37411;SDS011;23278;52.110;6.050;2023-04-03T14:19:31;1.75;;;0.50;;
37411;SDS011;23278;52.110;6.050;2023-04-03T14:21:59;1.63;;;0.57;;
37411;SDS011;23278;52.110;6.050;2023-04-03T14:24:26;2.78;;;0.75;;
37411;SDS011;23278;52.110;6.050;2023-04-03T14:26:53;2.63;;;0.60;;
37411;SDS011;23278;52.110;6.050;2023-04-03T14:29:20;3.83;;;0.70;;
37411;SDS011;23278;52.110;6.050;2023-04-03T14:31:47;3.33;;;0.90;;
37411;SDS011;23278;52.110;6.050;2023-04-03T14:34:15;3.72;;;0.98;;
37411;SDS011;23278;52.110;6.050;2023-04-03T14:36:42;1.88;;;0.50;;
37411;SDS011;23278;52.110;6.050;2023-04-03T14:39:18;2.25;;;0.50;;
37411;SDS011;23278;52.110;6.050;2023-04-03T14:41:44;1.75;;;0.73;;
37411;SDS011;23278;52.110;6.050;2023-04-03T14:44:11;3.08;;;0.70;;
37411;SDS011;23278;52.110;6.050;2023-04-03T14:46:38;3.03;;;0.75;;
37411;SDS011;23278;52.110;6.050;2023-04-03T14:49:14;2.67;;;0.63;;
37411;SDS011;23278;52.110;6.050;2023-04-03T14:51:43;1.67;;;0.55;;
37411;SDS011;23278;52.110;6.050;2023-04-03T14:54:11;2.22;;;0.60;;
37411;SDS011;23278;52.110;6.050;2023-04-03T14:56:40;2.85;;;0.52;;
37411;SDS011;23278;52.110;6.050;2023-04-03T14:59:11;2.97;;;0.63;;
37411;SDS011;23278;52.110;6.050;2023-04-03T15:01:38;3.25;;;0.85;;
37411;SDS011;23278;52.110;6.050;2023-04-03T15:04:11;2.97;;;0.68;;
37411;SDS011;23278;52.110;6.050;2023-04-03T15:06:41;2.72;;;0.68;;
37411;SDS011;23278;52.110;6.050;2023-04-03T15:09:15;3.53;;;0.60;;
37411;SDS011;23278;52.110;6.050;2023-04-03T15:11:45;3.30;;;0.82;;
37411;SDS011;23278;52.110;6.050;2023-04-03T15:14:10;1.60;;;0.60;;
37411;SDS011;23278;52.110;6.050;2023-04-03T15:16:36;1.63;;;0.50;;
37411;SDS011;23278;52.110;6.050;2023-04-03T15:19:02;2.60;;;0.60;;
37411;SDS011;23278;52.110;6.050;2023-04-03T15:21:28;2.15;;;0.70;;
37411;SDS011;23278;52.110;6.050;2023-04-03T15:23:54;2.10;;;1.00;;
37411;SDS011;23278;52.110;6.050;2023-04-03T15:26:20;1.77;;;0.80;;
37411;SDS011;23278;52.110;6.050;2023-04-03T15:28:46;2.55;;;1.15;;
37411;SDS011;23278;52.110;6.050;2023-04-03T15:31:12;1.92;;;0.60;;
37411;SDS011;23278;52.110;6.050;2023-04-03T15:33:38;1.92;;;0.52;;
37411;SDS011;23278;52.110;6.050;2023-04-03T15:36:04;1.45;;;0.50;;
37411;SDS011;23278;52.110;6.050;2023-04-03T15:38:30;2.20;;;0.60;;
37411;SDS011;23278;52.110;6.050;2023-04-03T15:40:56;3.22;;;0.90;;
37411;SDS011;23278;52.110;6.050;2023-04-03T15:43:22;2.40;;;0.90;;
37411;SDS011;23278;52.110;6.050;2023-04-03T15:45:48;1.98;;;0.63;;
37411;SDS011;23278;52.110;6.050;2023-04-03T15:48:16;3.20;;;1.17;;
37411;SDS011;23278;52.110;6.050;2023-04-03T15:50:42;2.08;;;0.60;;
37411;SDS011;23278;52.110;6.050;2023-04-03T15:53:08;2.20;;;0.60;;
37411;SDS011;23278;52.110;6.050;2023-04-03T15:55:35;3.92;;;0.77;;
37411;SDS011;23278;52.110;6.050;2023-04-03T15:58:03;1.52;;;0.50;;
37411;SDS011;23278;52.110;6.050;2023-04-03T16:00:30;4.25;;;0.68;;
37411;SDS011;23278;52.110;6.050;2023-04-03T16:03:01;2.65;;;0.70;;
37411;SDS011;23278;52.110;6.050;2023-04-03T16:05:30;0.85;;;0.70;;
37411;SDS011;23278;52.110;6.050;2023-04-03T16:07:57;5.60;;;1.25;;
37411;SDS011;23278;52.110;6.050;2023-04-03T16:10:24;2.20;;;0.70;;
37411;SDS011;23278;52.110;6.050;2023-04-03T16:12:51;3.75;;;0.60;;
37411;SDS011;23278;52.110;6.050;2023-04-03T16:15:17;4.82;;;0.70;;
37411;SDS011;23278;52.110;6.050;2023-04-03T16:17:43;2.97;;;0.80;;
37411;SDS011;23278;52.110;6.050;2023-04-03T16:20:10;4.88;;;0.73;;
37411;SDS011;23278;52.110;6.050;2023-04-03T16:22:38;3.20;;;1.00;;
37411;SDS011;23278;52.110;6.050;2023-04-03T16:25:05;1.85;;;0.60;;
37411;SDS011;23278;52.110;6.050;2023-04-03T16:27:32;2.75;;;0.70;;
37411;SDS011;23278;52.110;6.050;2023-04-03T16:29:57;3.03;;;0.80;;
37411;SDS011;23278;52.110;6.050;2023-04-03T16:32:24;2.90;;;0.77;;
37411;SDS011;23278;52.110;6.050;2023-04-03T16:34:53;1.73;;;0.80;;
37411;SDS011;23278;52.110;6.050;2023-04-03T16:37:19;3.15;;;1.23;;
37411;SDS011;23278;52.110;6.050;2023-04-03T16:39:45;2.10;;;0.82;;
37411;SDS011;23278;52.110;6.050;2023-04-03T16:42:11;1.60;;;0.68;;
37411;SDS011;23278;52.110;6.050;2023-04-03T16:44:37;1.15;;;0.63;;
37411;SDS011;23278;52.110;6.050;2023-04-03T16:47:05;4.05;;;0.80;;
37411;SDS011;23278;52.110;6.050;2023-04-03T16:49:40;1.73;;;1.10;;
37411;SDS011;23278;52.110;6.050;2023-04-03T16:52:06;2.30;;;0.50;;
37411;SDS011;23278;52.110;6.050;2023-04-03T16:54:43;2.80;;;0.98;;
37411;SDS011;23278;52.110;6.050;2023-04-03T16:57:21;2.65;;;0.70;;
37411;SDS011;23278;52.110;6.050;2023-04-03T16:59:50;2.55;;;0.98;;
37411;SDS011;23278;52.110;6.050;2023-04-03T17:02:16;1.50;;;0.65;;
37411;SDS011;23278;52.110;6.050;2023-04-03T17:04:42;3.10;;;0.63;;
37411;SDS011;23278;52.110;6.050;2023-04-03T17:07:09;2.70;;;0.82;;
37411;SDS011;23278;52.110;6.050;2023-04-03T17:09:35;1.85;;;0.70;;
37411;SDS011;23278;52.110;6.050;2023-04-03T17:12:01;2.25;;;0.65;;
37411;SDS011;23278;52.110;6.050;2023-04-03T17:14:27;2.72;;;0.90;;
37411;SDS011;23278;52.110;6.050;2023-04-03T17:16:53;1.98;;;0.85;;
37411;SDS011;23278;52.110;6.050;2023-04-03T17:19:19;1.67;;;0.70;;
37411;SDS011;23278;52.110;6.050;2023-04-03T17:21:45;2.58;;;0.70;;
37411;SDS011;23278;52.110;6.050;2023-04-03T17:24:12;1.77;;;0.70;;
37411;SDS011;23278;52.110;6.050;2023-04-03T17:26:40;1.80;;;0.70;;